< Typhoon 198829 1988 Season Typhoon 198831 >
Typhoon 198830 (TESS)
General InformationTrack Information on Google MapsDetailed Wind InformationList of All Images || Disaster Info.ResourceGoogle EarthGE AnimationAtom FeedGeoJSON
Detalied Best Track (Time Zone = UTC)
Year Month Day Hour Lat. Long. Pressure (hPa) Wind (kt) Class Image Chart
1988 11 1 12 9.0 131.0 1004 0 2 Image Chart
1988 11 1 18 9.5 130.0 1002 0 2 Image Chart
1988 11 2 00 10.0 129.0 1004 0 2 Image Chart
1988 11 2 06 10.0 127.0 1002 0 2 Image Chart
1988 11 2 12 10.0 125.0 1004 0 2 Image Chart
1988 11 2 18 10.0 124.0 1002 0 2 Image Chart
1988 11 3 00 10.0 123.0 1004 0 2 Image Chart
1988 11 3 06 9.5 122.0 1002 0 2 Image Chart
1988 11 3 12 9.0 121.0 1002 0 2 Image Chart
1988 11 3 18 9.0 120.0 1000 0 2 Image Chart
1988 11 4 00 8.8 119.4 998 35 3 Image Chart
1988 11 4 06 8.9 118.7 996 40 3 Image Chart
1988 11 4 12 9.3 117.9 994 40 3 Image Chart
1988 11 4 18 9.3 117.0 992 45 3 Image Chart
1988 11 5 00 9.5 116.0 990 50 4 Image Chart
1988 11 5 06 10.1 114.9 985 50 4 Image Chart
1988 11 5 12 10.1 113.4 980 55 4 Image Chart
1988 11 5 18 10.2 112.1 975 60 4 Image Chart
1988 11 6 00 10.6 111.0 980 55 4 Image Chart
1988 11 6 06 11.2 110.0 980 55 4 Image Chart
1988 11 6 12 11.8 108.7 990 55 4 Image Chart
1988 11 6 18 12.2 107.4 996 45 3 Image Chart
1988 11 7 00 12.5 106.0 1000 0 2 Image Chart
1988 11 7 06 13.0 105.0 1004 0 2 Image Chart
Japan Meteorological Agency Best Track Data | Correction Date : 1992-10-21
< Typhoon 198829 1988 Season Typhoon 198831 >

Help